| time (UTC) | temp C | wind direction | speed KPH | gust KPH | rain 1hr cm | rain 24hr cm | rain mn cm | humidity % | barometer mb |
| 20260507160042 | 13 | 244 | 16.1 | 25.7 | 0.00 | 0.00 | 0.00 | 69 | 1007.9 |
| 20260507154539 | 13 | 195 | 16.1 | 27.4 | 0.00 | 0.00 | 0.00 | 71 | 1007.9 |
| 20260507153036 | 12 | 237 | 14.5 | 24.1 | 0.00 | 0.00 | 0.00 | 73 | 1007.9 |
| 20260507151533 | 12 | 217 | 14.5 | 27.4 | 0.00 | 0.00 | 0.00 | 75 | 1007.9 |
| 20260507150032 | 11 | 202 | 19.3 | 29.0 | 0.00 | 0.00 | 0.00 | 77 | 1007.8 |
| 20260507144534 | 11 | 207 | 14.5 | 22.5 | 0.00 | 0.00 | 0.00 | 79 | 1007.8 |
| 20260507143033 | 10 | 188 | 14.5 | 22.5 | 0.00 | 0.00 | 0.00 | 81 | 1007.7 |
| 20260507141517 | 10 | 169 | 16.1 | 24.1 | 0.00 | 0.00 | 0.00 | 80 | 1007.6 |
| 20260507140024 | 10 | 196 | 17.7 | 29.0 | 0.00 | 0.00 | 0.00 | 81 | 1007.3 |
| 20260507134513 | 10 | 181 | 16.1 | 24.1 | 0.00 | 0.00 | 0.00 | 81 | 1007.3 |
| 20260507133012 | 10 | 186 | 9.7 | 14.5 | 0.00 | 0.00 | 0.00 | 81 | 1007.3 |
| 20260507131511 | 10 | 178 | 11.3 | 24.1 | 0.00 | 0.00 | 0.00 | 80 | 1007.1 |
| 20260507130008 | 10 | 193 | 14.5 | 20.9 | 0.00 | 0.00 | 0.00 | 81 | 1007.0 |
| 20260507124512 | 10 | 162 | 14.5 | 19.3 | 0.00 | 0.00 | 0.00 | 83 | 1007.0 |
| 20260507123004 | 10 | 181 | 11.3 | 19.3 | 0.00 | 0.00 | 0.00 | 83 | 1007.1 |
| 20260507121504 | 10 | 197 | 12.9 | 17.7 | 0.00 | 0.00 | 0.00 | 86 | 1007.0 |
| 20260507120048 | 10 | 148 | 1.6 | 4.8 | 0.00 | 0.00 | 0.00 | 85 | 1007.2 |
| 20260507114546 | 10 | 225 | 1.6 | 8.0 | 0.00 | 0.00 | 0.00 | 84 | 1007.2 |
| 20260507113045 | 10 | 252 | 0.0 | 12.9 | 0.00 | 0.00 | 0.00 | 84 | 1007.2 |
| 20260507111547 | 10 | 235 | 6.4 | 14.5 | 0.00 | 0.00 | 0.00 | 85 | 1007.1 |
| 20260507110046 | 10 | 213 | 6.4 | 12.9 | 0.00 | 0.00 | 0.00 | 82 | 1007.1 |
| 20260507104540 | 10 | 159 | 1.6 | 6.4 | 0.00 | 0.00 | 0.00 | 82 | 1007.2 |
| 20260507103037 | 11 | 219 | 6.4 | 14.5 | 0.00 | 0.00 | 0.00 | 81 | 1007.2 |
| 20260507101555 | 11 | 175 | 4.8 | 12.9 | 0.00 | 0.00 | 0.00 | 81 | 1007.1 |
| 20260507100027 | 11 | 217 | 6.4 | 12.9 | 0.00 | 0.00 | 0.00 | 80 | 1007.2 |
| 20260507094514 | 11 | 221 | 8.0 | 20.9 | 0.00 | 0.00 | 0.00 | 78 | 1007.0 |
| 20260507093054 | 11 | 229 | 12.9 | 20.9 | 0.00 | 0.00 | 0.00 | 78 | 1006.9 |
| 20260507091602 | 11 | 229 | 12.9 | 20.9 | 0.00 | 0.00 | 0.00 | 78 | 1006.9 |
| 20260507090055 | 12 | 214 | 8.0 | 14.5 | 0.00 | 0.00 | 0.00 | 76 | 1007.1 |
| 20260507084536 | 12 | 207 | 8.0 | 17.7 | 0.00 | 0.00 | 0.00 | 74 | 1007.0 |
| 20260507083034 | 12 | 181 | 9.7 | 16.1 | 0.00 | 0.00 | 0.00 | 72 | 1006.9 |
| 20260507081548 | 12 | 212 | 9.7 | 16.1 | 0.00 | 0.00 | 0.00 | 73 | 1006.7 |
| 20260507080029 | 12 | 221 | 9.7 | 17.7 | 0.00 | 0.00 | 0.00 | 72 | 1006.7 |
| 20260507074530 | 12 | 259 | 8.0 | 17.7 | 0.00 | 0.00 | 0.00 | 71 | 1006.5 |
| 20260507073026 | 12 | 229 | 11.3 | 19.3 | 0.00 | 0.00 | 0.00 | 70 | 1006.4 |
| 20260507071525 | 12 | 221 | 9.7 | 19.3 | 0.00 | 0.00 | 0.00 | 68 | 1006.4 |
| 20260507070013 | 12 | 218 | 9.7 | 14.5 | 0.00 | 0.00 | 0.00 | 67 | 1006.4 |
| 20260507064514 | 13 | 201 | 6.4 | 12.9 | 0.00 | 0.00 | 0.00 | 67 | 1006.5 |
| 20260507063010 | 13 | 207 | 6.4 | 14.5 | 0.00 | 0.00 | 0.00 | 66 | 1006.4 |
| 20260507061526 | 13 | 225 | 6.4 | 9.7 | 0.00 | 0.00 | 0.00 | 65 | 1006.3 |
| 20260507060010 | 13 | 167 | 4.8 | 14.5 | 0.00 | 0.00 | 0.00 | 65 | 1006.2 |
| 20260507054509 | 13 | 215 | 9.7 | 14.5 | 0.00 | 0.00 | 0.00 | 64 | 1006.1 |
| 20260507053011 | 13 | 204 | 8.0 | 12.9 | 0.00 | 0.00 | 0.00 | 64 | 1006.1 |
| 20260507051508 | 13 | 234 | 6.4 | 12.9 | 0.00 | 0.00 | 0.00 | 63 | 1006.1 |
| 20260507050050 | 14 | 248 | 6.4 | 12.9 | 0.00 | 0.00 | 0.00 | 62 | 1006.2 |
| 20260507044550 | 15 | 215 | 9.7 | 17.7 | 0.00 | 0.00 | 0.00 | 59 | 1006.0 |
| 20260507043040 | 15 | 229 | 9.7 | 16.1 | 0.00 | 0.00 | 0.00 | 58 | 1005.9 |
| 20260507041537 | 16 | 210 | 9.7 | 22.5 | 0.00 | 0.00 | 0.00 | 57 | 1005.8 |
| 20260507040035 | 16 | 234 | 14.5 | 24.1 | 0.00 | 0.00 | 0.00 | 54 | 1005.6 |
| 20260507034536 | 17 | 244 | 16.1 | 29.0 | 0.00 | 0.00 | 0.00 | 53 | 1005.1 |
| 20260507033035 | 17 | 206 | 19.3 | 27.4 | 0.00 | 0.00 | 0.00 | 53 | 1004.9 |
| 20260507031533 | 18 | 215 | 16.1 | 25.7 | 0.00 | 0.00 | 0.00 | 53 | 1004.7 |
| 20260507030037 | 18 | 210 | 14.5 | 30.6 | 0.00 | 0.00 | 0.00 | 53 | 1004.6 |
| 20260507024534 | 19 | 217 | 19.3 | 29.0 | 0.00 | 0.00 | 0.00 | 50 | 1004.3 |
| 20260507023021 | 20 | 207 | 19.3 | 32.2 | 0.00 | 0.00 | 0.00 | 48 | 1004.3 |
| 20260507021520 | 20 | 214 | 20.9 | 32.2 | 0.00 | 0.00 | 0.00 | 47 | 1004.2 |
| 20260507020019 | 20 | 174 | 16.1 | 30.6 | 0.00 | 0.00 | 0.00 | 47 | 1004.1 |
| 20260507014519 | 21 | 203 | 17.7 | 27.4 | 0.00 | 0.00 | 0.00 | 47 | 1004.0 |
| 20260507013018 | 21 | 207 | 19.3 | 30.6 | 0.00 | 0.00 | 0.00 | 47 | 1003.9 |
| 20260507011523 | 21 | 226 | 20.9 | 29.0 | 0.00 | 0.00 | 0.00 | 46 | 1003.9 |
| 20260507010017 | 21 | 212 | 16.1 | 29.0 | 0.00 | 0.00 | 0.00 | 47 | 1003.9 |
| 20260507004517 | 22 | 188 | 17.7 | 30.6 | 0.00 | 0.00 | 0.00 | 45 | 1003.8 |
| 20260507003058 | 22 | 223 | 16.1 | 25.7 | 0.00 | 0.00 | 0.00 | 47 | 1003.7 |
| 20260507001605 | 22 | 264 | 19.3 | 27.4 | 0.00 | 0.00 | 0.00 | 46 | 1003.6 |
| 20260507000046 | 23 | 202 | 14.5 | 25.7 | 0.00 | 0.00 | 0.00 | 47 | 1003.7 |
| 20260506234545 | 23 | 239 | 17.7 | 27.4 | 0.00 | 0.00 | 0.00 | 46 | 1003.6 |
| 20260506233047 | 22 | 216 | 14.5 | 27.4 | 0.00 | 0.00 | 0.00 | 48 | 1003.7 |
| 20260506231544 | 23 | 231 | 16.1 | 25.7 | 0.00 | 0.00 | 0.00 | 46 | 1003.7 |
| 20260506230044 | 23 | 235 | 17.7 | 25.7 | 0.00 | 0.00 | 0.00 | 45 | 1003.7 |
| 20260506224543 | 23 | 211 | 20.9 | 29.0 | 0.00 | 0.00 | 0.00 | 43 | 1003.8 |
| 20260506223042 | 23 | 242 | 17.7 | 25.7 | 0.00 | 0.00 | 0.00 | 43 | 1004.1 |
| 20260506221544 | 24 | 238 | 14.5 | 27.4 | 0.00 | 0.00 | 0.00 | 44 | 1004.1 |
| 20260506220035 | 24 | 217 | 16.1 | 25.7 | 0.00 | 0.00 | 0.00 | 43 | 1004.2 |
| 20260506214528 | 24 | 201 | 17.7 | 24.1 | 0.00 | 0.00 | 0.00 | 44 | 1004.5 |
| 20260506213028 | 25 | 234 | 14.5 | 25.7 | 0.00 | 0.00 | 0.00 | 42 | 1004.7 |
| 20260506211526 | 24 | 251 | 14.5 | 27.4 | 0.00 | 0.00 | 0.00 | 41 | 1004.8 |
| 20260506210027 | 25 | 232 | 16.1 | 25.7 | 0.00 | 0.00 | 0.00 | 41 | 1004.8 |
| 20260506204527 | 25 | 247 | 16.1 | 25.7 | 0.00 | 0.00 | 0.00 | 39 | 1004.7 |
| 20260506203024 | 25 | 251 | 16.1 | 25.7 | 0.00 | 0.00 | 0.00 | 41 | 1004.7 |
| 20260506201538 | 25 | 262 | 16.1 | 25.7 | 0.00 | 0.00 | 0.00 | 44 | 1004.7 |
| 20260506200009 | 24 | 231 | 11.3 | 22.5 | 0.00 | 0.00 | 0.00 | 46 | 1004.8 |
| 20260506194506 | 23 | 189 | 17.7 | 27.4 | 0.00 | 0.00 | 0.00 | 45 | 1004.9 |
| 20260506193005 | 23 | 178 | 16.1 | 25.7 | 0.00 | 0.00 | 0.00 | 48 | 1005.1 |
| 20260506191600 | 23 | 205 | 14.5 | 33.8 | 0.00 | 0.00 | 0.00 | 50 | 1005.3 |
| 20260506190057 | 22 | 255 | 17.7 | 30.6 | 0.00 | 0.00 | 0.00 | 52 | 1005.5 |
| 20260506184556 | 21 | 230 | 17.7 | 29.0 | 0.00 | 0.00 | 0.00 | 53 | 1005.6 |
| 20260506183050 | 21 | 202 | 19.3 | 29.0 | 0.00 | 0.00 | 0.00 | 53 | 1005.7 |
| 20260506181548 | 20 | 180 | 20.9 | 29.0 | 0.00 | 0.00 | 0.00 | 55 | 1006.0 |
| 20260506180031 | 20 | 205 | 19.3 | 27.4 | 0.00 | 0.00 | 0.00 | 55 | 1006.3 |
| 20260506174529 | 20 | 224 | 14.5 | 24.1 | 0.00 | 0.00 | 0.00 | 60 | 1006.3 |
| 20260506173028 | 19 | 257 | 17.7 | 29.0 | 0.00 | 0.00 | 0.00 | 58 | 1006.4 |
| 20260506171532 | 19 | 212 | 14.5 | 27.4 | 0.00 | 0.00 | 0.00 | 61 | 1006.4 |
| 20260506170023 | 18 | 222 | 16.1 | 25.7 | 0.00 | 0.00 | 0.00 | 62 | 1006.4 |
| 20260506164522 | 18 | 209 | 17.7 | 24.1 | 0.00 | 0.00 | 0.00 | 62 | 1006.3 |
| 20260506163030 | 17 | 210 | 12.9 | 27.4 | 0.00 | 0.00 | 0.00 | 67 | 1006.3 |
| 20260506161513 | 17 | 228 | 17.7 | 29.0 | 0.00 | 0.00 | 0.00 | 67 | 1006.4 |
| 20260506160111 | 16 | 222 | 17.7 | 29.0 | 0.00 | 0.00 | 0.00 | 66 | 1006.5 |